createdAt,value
2023-04-09T00:00:47.359Z,100.00
2023-04-09T00:03:13.933Z,100.00
2023-04-09T00:05:41.108Z,100.00
2023-04-09T00:08:08.247Z,100.00
2023-04-09T00:10:35.018Z,100.00
2023-04-09T00:13:01.582Z,100.00
2023-04-09T00:15:31.532Z,100.00
2023-04-09T00:17:59.116Z,100.00
2023-04-09T00:20:25.875Z,100.00
2023-04-09T00:22:53.223Z,100.00
2023-04-09T00:25:20.150Z,100.00
2023-04-09T00:27:47.004Z,100.00
2023-04-09T00:30:13.503Z,100.00
2023-04-09T00:32:40.151Z,100.00
2023-04-09T00:35:06.985Z,100.00
2023-04-09T00:37:33.674Z,100.00
2023-04-09T00:40:00.269Z,100.00
2023-04-09T00:42:27.208Z,100.00
2023-04-09T00:44:53.670Z,100.00
2023-04-09T00:47:20.209Z,100.00
2023-04-09T00:49:46.730Z,100.00
2023-04-09T00:52:19.314Z,100.00
2023-04-09T00:54:50.454Z,100.00
2023-04-09T00:57:17.876Z,100.00
2023-04-09T00:59:47.792Z,100.00
2023-04-09T01:02:14.346Z,100.00
2023-04-09T01:04:43.638Z,100.00
2023-04-09T01:07:20.774Z,100.00
2023-04-09T01:09:54.356Z,100.00
2023-04-09T01:12:47.804Z,100.00
2023-04-09T01:15:22.229Z,100.00
2023-04-09T01:17:57.704Z,100.00
2023-04-09T01:20:34.268Z,100.00
2023-04-09T01:23:03.902Z,100.00
2023-04-09T01:25:33.718Z,100.00
2023-04-09T01:28:06.201Z,100.00
2023-04-09T01:30:33.098Z,100.00
2023-04-09T01:33:01.020Z,100.00
2023-04-09T01:35:28.947Z,100.00
2023-04-09T01:37:58.360Z,100.00
2023-04-09T01:40:27.784Z,100.00
2023-04-09T01:42:55.486Z,100.00
2023-04-09T01:45:23.062Z,100.00
2023-04-09T01:47:49.812Z,100.00
2023-04-09T01:50:16.616Z,100.00
2023-04-09T01:52:43.250Z,100.00
2023-04-09T01:55:10.122Z,100.00
2023-04-09T01:57:39.378Z,100.00
2023-04-09T02:00:07.869Z,100.00
2023-04-09T02:02:41.376Z,100.00
2023-04-09T02:05:12.026Z,100.00
2023-04-09T02:07:54.173Z,100.00
2023-04-09T02:10:22.455Z,100.00
2023-04-09T02:12:51.115Z,100.00
2023-04-09T02:15:23.105Z,100.00
2023-04-09T02:17:49.530Z,100.00
2023-04-09T02:20:19.819Z,100.00
2023-04-09T02:22:47.948Z,100.00
2023-04-09T02:25:15.653Z,100.00
2023-04-09T02:27:42.211Z,100.00
2023-04-09T02:30:12.208Z,100.00
2023-04-09T02:32:38.750Z,100.00
2023-04-09T02:35:05.723Z,100.00
2023-04-09T02:37:32.194Z,100.00
2023-04-09T02:39:58.626Z,100.00
2023-04-09T02:42:25.204Z,100.00
2023-04-09T02:44:51.655Z,100.00
2023-04-09T02:47:18.132Z,100.00
2023-04-09T02:49:47.177Z,100.00
2023-04-09T02:52:13.656Z,100.00
2023-04-09T02:54:40.340Z,100.00
2023-04-09T02:57:06.810Z,100.00
2023-04-09T02:59:34.310Z,100.00
2023-04-09T03:02:00.905Z,100.00
2023-04-09T03:04:27.383Z,100.00
2023-04-09T03:06:53.903Z,100.00
2023-04-09T03:09:20.413Z,100.00
2023-04-09T03:11:46.885Z,100.00
2023-04-09T03:14:13.376Z,100.00
2023-04-09T03:16:39.888Z,100.00
2023-04-09T03:19:06.356Z,100.00
2023-04-09T03:21:33.208Z,100.00
2023-04-09T03:24:03.827Z,100.00
2023-04-09T03:26:36.100Z,100.00
2023-04-09T03:29:03.753Z,100.00
2023-04-09T03:31:30.710Z,100.00
2023-04-09T03:33:57.357Z,100.00
2023-04-09T03:36:23.974Z,100.00
2023-04-09T03:38:50.724Z,100.00
2023-04-09T03:41:17.332Z,100.00
2023-04-09T03:43:43.834Z,100.00
2023-04-09T03:46:17.632Z,100.00
2023-04-09T03:48:45.428Z,100.00
2023-04-09T03:51:13.162Z,100.00
2023-04-09T03:53:40.461Z,100.00
2023-04-09T03:56:07.278Z,100.00
2023-04-09T03:58:34.092Z,100.00
2023-04-09T04:01:00.995Z,100.00
2023-04-09T04:03:28.314Z,100.00
2023-04-09T04:06:00.633Z,100.00
2023-04-09T04:08:27.097Z,100.00
2023-04-09T04:10:53.603Z,100.00
2023-04-09T04:13:20.249Z,100.00
2023-04-09T04:15:46.787Z,100.00
2023-04-09T04:18:13.282Z,100.00
2023-04-09T04:20:41.017Z,100.00
2023-04-09T04:23:09.766Z,100.00
2023-04-09T04:25:36.265Z,100.00
2023-04-09T04:28:02.743Z,100.00
2023-04-09T04:30:29.222Z,100.00
2023-04-09T04:32:55.826Z,100.00
2023-04-09T04:35:25.685Z,100.00
2023-04-09T04:37:52.236Z,100.00
2023-04-09T04:40:18.801Z,100.00
2023-04-09T04:42:45.316Z,100.00
2023-04-09T04:45:11.813Z,100.00
2023-04-09T04:47:38.542Z,100.00
2023-04-09T04:50:06.413Z,100.00
2023-04-09T04:52:32.917Z,100.00
2023-04-09T04:54:59.890Z,100.00
2023-04-09T04:57:26.348Z,100.00
2023-04-09T04:59:52.863Z,100.00
2023-04-09T05:02:19.596Z,100.00
2023-04-09T05:04:46.374Z,100.00
2023-04-09T05:07:12.810Z,100.00
2023-04-09T05:09:39.342Z,100.00
2023-04-09T05:12:05.948Z,100.00
2023-04-09T05:14:32.469Z,100.00
2023-04-09T05:16:59.131Z,100.00
2023-04-09T05:19:25.720Z,100.00
2023-04-09T05:21:52.275Z,100.00
2023-04-09T05:24:18.803Z,100.00
2023-04-09T05:26:45.496Z,100.00
2023-04-09T05:29:17.298Z,100.00
2023-04-09T05:31:43.899Z,100.00
2023-04-09T05:34:10.419Z,100.00
2023-04-09T05:36:36.857Z,100.00
2023-04-09T05:39:03.466Z,100.00
2023-04-09T05:41:29.988Z,100.00
2023-04-09T05:43:57.447Z,100.00
2023-04-09T05:46:24.838Z,100.00
2023-04-09T05:48:51.744Z,100.00
2023-04-09T05:51:18.311Z,100.00
2023-04-09T05:53:44.821Z,100.00
2023-04-09T05:56:18.983Z,100.00
2023-04-09T05:58:45.517Z,100.00
2023-04-09T06:01:12.012Z,100.00
2023-04-09T06:03:38.756Z,100.00
2023-04-09T06:06:05.571Z,100.00
2023-04-09T06:08:35.579Z,100.00
2023-04-09T06:11:02.175Z,100.00
2023-04-09T06:13:28.715Z,100.00
2023-04-09T06:15:55.430Z,100.00
2023-04-09T06:18:23.208Z,100.00
2023-04-09T06:20:49.681Z,100.00
2023-04-09T06:23:16.368Z,100.00
2023-04-09T06:25:42.992Z,100.00
2023-04-09T06:28:09.452Z,100.00
2023-04-09T06:30:37.070Z,100.00
2023-04-09T06:33:03.763Z,100.00
2023-04-09T06:35:30.293Z,100.00
2023-04-09T06:37:56.732Z,100.00
2023-04-09T06:40:23.559Z,100.00
2023-04-09T06:42:50.329Z,100.00
2023-04-09T06:45:16.874Z,100.00
2023-04-09T06:47:43.451Z,100.00
2023-04-09T06:50:10.307Z,100.00
2023-04-09T06:52:36.869Z,100.00
2023-04-09T06:55:03.387Z,100.00
2023-04-09T06:57:29.816Z,100.00
2023-04-09T06:59:56.520Z,100.00
2023-04-09T07:02:23.249Z,100.00
2023-04-09T07:04:49.958Z,100.00
2023-04-09T07:07:16.507Z,100.00
2023-04-09T07:09:43.061Z,100.00
2023-04-09T07:12:09.500Z,100.00
2023-04-09T07:14:36.005Z,100.00
2023-04-09T07:17:02.601Z,100.00
2023-04-09T07:19:29.572Z,100.00
2023-04-09T07:21:56.190Z,100.00
2023-04-09T07:24:22.691Z,100.00
2023-04-09T07:26:52.085Z,100.00
2023-04-09T07:29:20.662Z,100.00
2023-04-09T07:31:47.215Z,100.00
2023-04-09T07:34:13.653Z,100.00
2023-04-09T07:36:41.239Z,100.00
2023-04-09T07:39:07.725Z,100.00
2023-04-09T07:41:34.195Z,100.00
2023-04-09T07:44:03.232Z,100.00
2023-04-09T07:46:29.875Z,100.00
2023-04-09T07:48:56.608Z,100.00
2023-04-09T07:51:23.339Z,100.00
2023-04-09T07:53:49.827Z,100.00
2023-04-09T07:56:16.356Z,100.00
2023-04-09T07:58:43.031Z,100.00
2023-04-09T08:01:09.522Z,100.00
2023-04-09T08:03:36.798Z,100.00
2023-04-09T08:06:03.817Z,100.00
2023-04-09T08:08:30.964Z,100.00
2023-04-09T08:10:57.491Z,100.00
2023-04-09T08:13:25.324Z,100.00
2023-04-09T08:15:52.336Z,100.00
2023-04-09T08:18:18.922Z,100.00
2023-04-09T08:20:45.668Z,100.00
2023-04-09T08:23:12.642Z,100.00
2023-04-09T08:25:42.425Z,100.00
2023-04-09T08:28:09.027Z,100.00
2023-04-09T08:30:35.571Z,100.00
2023-04-09T08:33:02.540Z,100.00
2023-04-09T08:35:31.918Z,100.00
2023-04-09T08:37:59.522Z,100.00
2023-04-09T08:40:26.014Z,100.00
2023-04-09T08:42:58.595Z,100.00
2023-04-09T08:45:25.136Z,100.00
2023-04-09T08:47:52.903Z,100.00
2023-04-09T08:50:20.598Z,100.00
2023-04-09T08:52:49.902Z,100.00
2023-04-09T08:55:16.620Z,100.00
2023-04-09T08:57:43.573Z,100.00
2023-04-09T09:00:10.709Z,100.00
2023-04-09T09:02:38.671Z,100.00
2023-04-09T09:05:05.727Z,100.00
2023-04-09T09:07:34.199Z,100.00
2023-04-09T09:10:05.092Z,100.00
2023-04-09T09:12:32.231Z,100.00
2023-04-09T09:14:58.779Z,100.00
2023-04-09T09:17:25.501Z,100.00
2023-04-09T09:19:52.140Z,100.00
2023-04-09T09:22:18.628Z,100.00
2023-04-09T09:24:50.347Z,100.00
2023-04-09T09:27:36.613Z,100.00
2023-04-09T09:30:05.602Z,100.00
2023-04-09T09:32:35.211Z,100.00
2023-04-09T09:35:09.168Z,100.00
2023-04-09T09:37:35.712Z,100.00
2023-04-09T09:40:02.469Z,100.00
2023-04-09T09:42:29.040Z,100.00
2023-04-09T09:44:56.018Z,100.00
2023-04-09T09:47:23.452Z,100.00
2023-04-09T09:49:51.350Z,100.00
2023-04-09T09:52:26.903Z,100.00
2023-04-09T09:54:55.807Z,100.00
2023-04-09T09:57:26.074Z,100.00
2023-04-09T10:00:04.268Z,100.00
2023-04-09T10:02:40.732Z,100.00
2023-04-09T10:05:09.174Z,100.00
2023-04-09T10:07:37.395Z,100.00
2023-04-09T10:10:06.121Z,100.00
2023-04-09T10:12:33.926Z,100.00
2023-04-09T10:15:04.674Z,99.59
2023-04-09T10:17:32.298Z,99.33
2023-04-09T10:20:11.645Z,97.92
2023-04-09T10:22:39.201Z,98.42
2023-04-09T10:25:06.682Z,95.74
2023-04-09T10:27:33.166Z,95.31
2023-04-09T10:30:02.264Z,94.77
2023-04-09T10:32:36.115Z,91.98
2023-04-09T10:35:04.166Z,91.13
2023-04-09T10:37:31.819Z,92.55
2023-04-09T10:39:58.629Z,91.52
2023-04-09T10:42:32.959Z,91.16
2023-04-09T10:45:12.269Z,92.03
2023-04-09T10:47:40.846Z,89.39
2023-04-09T10:50:26.968Z,88.44
2023-04-09T10:52:56.552Z,87.92
2023-04-09T10:55:42.537Z,87.77
2023-04-09T10:58:13.208Z,85.07
2023-04-09T11:00:42.823Z,85.55
2023-04-09T11:03:09.696Z,85.32
2023-04-09T11:05:40.355Z,82.01
2023-04-09T11:08:12.342Z,82.08
2023-04-09T11:10:40.959Z,83.12
2023-04-09T11:13:12.203Z,81.43
2023-04-09T11:15:39.152Z,76.08
2023-04-09T11:18:09.781Z,76.88
2023-04-09T11:20:36.504Z,78.43
2023-04-09T11:23:03.366Z,78.28
2023-04-09T11:25:31.750Z,78.13
2023-04-09T11:27:59.081Z,78.39
2023-04-09T11:30:26.221Z,78.39
2023-04-09T11:32:53.039Z,74.49
2023-04-09T11:35:22.496Z,74.02
2023-04-09T11:37:53.010Z,74.53
2023-04-09T11:40:20.573Z,75.54
2023-04-09T11:42:50.082Z,73.10
2023-04-09T11:45:17.458Z,73.86
2023-04-09T11:47:45.360Z,73.58
2023-04-09T11:50:13.465Z,73.20
2023-04-09T11:52:41.396Z,72.00
2023-04-09T11:55:11.524Z,71.73
2023-04-09T11:57:44.434Z,73.33
2023-04-09T12:00:12.755Z,73.14
2023-04-09T12:02:46.294Z,72.04
2023-04-09T12:05:25.477Z,73.22
2023-04-09T12:07:57.175Z,71.57
2023-04-09T12:10:31.782Z,73.42
2023-04-09T12:13:07.406Z,71.89
2023-04-09T12:15:36.717Z,72.37
2023-04-09T12:18:03.795Z,73.04
2023-04-09T12:20:36.251Z,73.07
2023-04-09T12:23:07.077Z,71.11
2023-04-09T12:25:36.901Z,70.18
2023-04-09T12:28:10.173Z,67.83
2023-04-09T12:30:36.799Z,69.55
2023-04-09T12:33:04.573Z,67.47
2023-04-09T12:35:31.759Z,67.96
2023-04-09T12:37:59.405Z,69.17
2023-04-09T12:40:26.403Z,69.59
2023-04-09T12:42:53.136Z,70.66
2023-04-09T12:45:20.354Z,69.88
2023-04-09T12:47:47.189Z,66.74
2023-04-09T12:50:17.487Z,68.48
2023-04-09T12:52:44.316Z,68.00
2023-04-09T12:55:11.922Z,67.15
2023-04-09T12:57:39.949Z,67.52
2023-04-09T13:00:07.823Z,65.97
2023-04-09T13:02:35.047Z,66.93
2023-04-09T13:05:02.003Z,67.86
2023-04-09T13:07:29.498Z,66.89
2023-04-09T13:09:56.944Z,66.02
2023-04-09T13:12:24.107Z,66.61
2023-04-09T13:14:53.569Z,64.78
2023-04-09T13:17:20.107Z,64.86
2023-04-09T13:19:46.637Z,64.40
2023-04-09T13:22:13.104Z,64.89
2023-04-09T13:24:39.646Z,64.54
2023-04-09T13:27:09.236Z,63.72
2023-04-09T13:29:36.091Z,62.45
2023-04-09T13:32:07.063Z,65.24
2023-04-09T13:34:35.058Z,62.21
2023-04-09T13:37:04.950Z,63.48
2023-04-09T13:39:31.442Z,61.04
2023-04-09T13:41:58.032Z,62.14
2023-04-09T13:44:25.180Z,62.71
2023-04-09T13:46:51.712Z,63.10
2023-04-09T13:49:18.290Z,63.41
2023-04-09T13:51:44.828Z,62.82
2023-04-09T13:54:11.602Z,63.42
2023-04-09T13:56:39.349Z,66.49
2023-04-09T13:59:06.420Z,67.92
2023-04-09T14:01:34.325Z,67.97
2023-04-09T14:04:00.989Z,67.42
2023-04-09T14:06:27.557Z,64.87
2023-04-09T14:08:54.442Z,63.55
2023-04-09T14:11:21.202Z,63.21
2023-04-09T14:13:48.400Z,65.24
2023-04-09T14:16:14.915Z,64.86
2023-04-09T14:18:41.695Z,64.43
2023-04-09T14:21:10.153Z,66.20
2023-04-09T14:23:37.346Z,67.59
2023-04-09T14:26:04.841Z,68.18
2023-04-09T14:28:33.385Z,68.64
2023-04-09T14:31:00.226Z,67.62
2023-04-09T14:33:26.998Z,67.49
2023-04-09T14:35:53.536Z,67.87
2023-04-09T14:38:20.122Z,67.82
2023-04-09T14:40:46.573Z,68.56
2023-04-09T14:43:16.599Z,69.02
2023-04-09T14:45:43.163Z,69.44
2023-04-09T14:48:09.668Z,68.72
2023-04-09T14:50:36.647Z,70.05
2023-04-09T14:53:04.468Z,69.33
2023-04-09T14:55:31.136Z,69.93
2023-04-09T14:57:59.574Z,71.51
2023-04-09T15:00:26.083Z,70.69
2023-04-09T15:02:52.826Z,70.97
2023-04-09T15:05:19.529Z,71.68
2023-04-09T15:07:46.129Z,71.73
2023-04-09T15:10:15.684Z,71.68
2023-04-09T15:12:42.173Z,70.79
2023-04-09T15:15:09.670Z,71.35
2023-04-09T15:17:36.747Z,71.80
2023-04-09T15:20:04.173Z,72.40
2023-04-09T15:22:30.756Z,73.11
2023-04-09T15:25:00.617Z,74.06
2023-04-09T15:27:27.051Z,73.54
2023-04-09T15:29:53.547Z,72.58
2023-04-09T15:32:20.056Z,74.48
2023-04-09T15:34:46.651Z,73.87
2023-04-09T15:37:13.107Z,74.08
2023-04-09T15:39:39.615Z,75.25
2023-04-09T15:42:07.937Z,76.42
2023-04-09T15:44:36.288Z,74.88
2023-04-09T15:47:02.831Z,75.72
2023-04-09T15:49:32.559Z,76.48
2023-04-09T15:51:59.010Z,76.46
2023-04-09T15:54:25.588Z,78.28
2023-04-09T15:56:55.270Z,79.36
2023-04-09T15:59:22.888Z,79.35
2023-04-09T16:01:49.485Z,78.66
2023-04-09T16:04:16.046Z,79.31
2023-04-09T16:06:42.555Z,79.30
2023-04-09T16:09:09.071Z,79.11
2023-04-09T16:11:38.135Z,80.16
2023-04-09T16:14:04.623Z,79.20
2023-04-09T16:16:31.189Z,80.21
2023-04-09T16:18:57.705Z,80.14
2023-04-09T16:21:24.234Z,80.79
2023-04-09T16:23:50.747Z,80.53
2023-04-09T16:26:17.213Z,81.62
2023-04-09T16:28:43.646Z,82.68
2023-04-09T16:31:10.270Z,84.11
2023-04-09T16:33:36.752Z,84.76
2023-04-09T16:36:03.499Z,85.74
2023-04-09T16:38:31.109Z,86.11
2023-04-09T16:40:57.638Z,87.62
2023-04-09T16:43:25.322Z,87.03
2023-04-09T16:45:52.286Z,86.65
2023-04-09T16:48:18.879Z,86.63
2023-04-09T16:50:45.475Z,87.36
2023-04-09T16:53:11.943Z,87.86
2023-04-09T16:55:38.471Z,88.14
2023-04-09T16:58:04.965Z,88.70
2023-04-09T17:00:31.486Z,89.48
2023-04-09T17:02:58.201Z,89.00
2023-04-09T17:05:25.056Z,89.81
2023-04-09T17:07:52.449Z,90.55
2023-04-09T17:10:19.499Z,90.59
2023-04-09T17:12:46.063Z,90.78
2023-04-09T17:15:12.733Z,91.21
2023-04-09T17:17:43.892Z,91.46
2023-04-09T17:20:11.264Z,91.67
2023-04-09T17:22:39.252Z,92.16
2023-04-09T17:25:06.144Z,92.50
2023-04-09T17:27:32.714Z,93.07
2023-04-09T17:29:59.194Z,93.60
2023-04-09T17:32:26.033Z,93.73
2023-04-09T17:34:52.597Z,93.93
2023-04-09T17:37:19.835Z,94.42
2023-04-09T17:39:46.402Z,94.50
2023-04-09T17:42:16.397Z,95.04
2023-04-09T17:44:43.806Z,95.30
2023-04-09T17:47:11.561Z,95.63
2023-04-09T17:49:39.134Z,95.61
2023-04-09T17:52:07.382Z,96.10
2023-04-09T17:54:34.728Z,96.74
2023-04-09T17:57:04.084Z,97.04
2023-04-09T17:59:31.220Z,97.47
2023-04-09T18:01:57.910Z,97.36
2023-04-09T18:04:24.996Z,97.82
2023-04-09T18:06:52.360Z,98.15
2023-04-09T18:09:19.213Z,98.37
2023-04-09T18:11:46.260Z,98.71
2023-04-09T18:14:12.824Z,98.92
2023-04-09T18:16:39.473Z,98.69
2023-04-09T18:19:07.279Z,98.92
2023-04-09T18:21:36.529Z,99.05
2023-04-09T18:24:03.658Z,99.27
2023-04-09T18:26:30.801Z,99.30
2023-04-09T18:29:00.161Z,99.55
2023-04-09T18:31:27.874Z,100.00
2023-04-09T18:33:54.453Z,100.00
2023-04-09T18:36:20.921Z,100.00
2023-04-09T18:38:47.411Z,100.00
2023-04-09T18:41:22.315Z,100.00
2023-04-09T18:43:48.903Z,100.00
2023-04-09T18:46:15.448Z,100.00
2023-04-09T18:48:43.370Z,100.00
2023-04-09T18:51:10.625Z,100.00
2023-04-09T18:53:37.179Z,100.00
2023-04-09T18:56:03.868Z,100.00
2023-04-09T18:58:30.453Z,100.00
2023-04-09T19:00:57.369Z,100.00
2023-04-09T19:03:24.153Z,100.00
2023-04-09T19:05:51.687Z,100.00
2023-04-09T19:08:18.165Z,100.00
2023-04-09T19:10:47.398Z,100.00
2023-04-09T19:13:13.879Z,100.00
2023-04-09T19:15:40.366Z,100.00
2023-04-09T19:18:06.936Z,100.00
2023-04-09T19:20:33.494Z,100.00
2023-04-09T19:22:59.997Z,100.00
2023-04-09T19:25:27.141Z,100.00
2023-04-09T19:27:54.260Z,100.00
2023-04-09T19:30:24.713Z,100.00
2023-04-09T19:32:52.141Z,100.00
2023-04-09T19:35:18.709Z,100.00
2023-04-09T19:37:45.244Z,100.00
2023-04-09T19:40:11.992Z,100.00
2023-04-09T19:42:38.577Z,100.00
2023-04-09T19:45:05.662Z,100.00
2023-04-09T19:47:32.265Z,100.00
2023-04-09T19:49:58.749Z,100.00
2023-04-09T19:52:25.376Z,100.00
2023-04-09T19:54:58.518Z,100.00
2023-04-09T19:57:26.524Z,100.00
2023-04-09T19:59:53.968Z,100.00
2023-04-09T20:02:20.589Z,100.00
2023-04-09T20:04:47.216Z,100.00
2023-04-09T20:07:14.233Z,100.00
2023-04-09T20:09:44.899Z,100.00
2023-04-09T20:12:11.319Z,100.00
2023-04-09T20:14:40.755Z,100.00
2023-04-09T20:17:15.069Z,100.00
2023-04-09T20:19:41.781Z,100.00
2023-04-09T20:22:08.294Z,100.00
2023-04-09T20:24:35.382Z,100.00
2023-04-09T20:27:02.088Z,100.00
2023-04-09T20:29:28.622Z,100.00
2023-04-09T20:31:55.252Z,100.00
2023-04-09T20:34:26.622Z,100.00
2023-04-09T20:36:58.038Z,100.00
2023-04-09T20:39:26.865Z,100.00
2023-04-09T20:41:55.010Z,100.00
2023-04-09T20:44:21.478Z,100.00
2023-04-09T20:46:52.829Z,100.00
2023-04-09T20:49:22.583Z,100.00
2023-04-09T20:51:49.924Z,100.00
2023-04-09T20:54:18.028Z,100.00
2023-04-09T20:56:44.719Z,100.00
2023-04-09T20:59:11.861Z,100.00
2023-04-09T21:01:38.471Z,100.00
2023-04-09T21:04:05.143Z,100.00
2023-04-09T21:06:31.764Z,100.00
2023-04-09T21:09:03.020Z,100.00
2023-04-09T21:11:29.800Z,100.00
2023-04-09T21:13:58.919Z,100.00
2023-04-09T21:16:27.193Z,100.00
2023-04-09T21:18:57.148Z,100.00
2023-04-09T21:21:23.979Z,100.00
2023-04-09T21:23:50.593Z,100.00
2023-04-09T21:26:17.113Z,100.00
2023-04-09T21:28:43.948Z,100.00
2023-04-09T21:31:17.132Z,100.00
2023-04-09T21:33:43.676Z,100.00
2023-04-09T21:36:16.547Z,100.00
2023-04-09T21:38:43.063Z,100.00
2023-04-09T21:41:09.710Z,100.00
2023-04-09T21:43:38.176Z,100.00
2023-04-09T21:46:04.974Z,100.00
2023-04-09T21:48:31.418Z,99.83
2023-04-09T21:50:58.401Z,97.40
2023-04-09T21:53:26.627Z,95.27
2023-04-09T21:55:53.185Z,93.48
2023-04-09T21:58:32.329Z,91.71
2023-04-09T22:00:58.924Z,90.90
2023-04-09T22:03:26.043Z,89.52
2023-04-09T22:05:52.716Z,88.22
2023-04-09T22:08:19.202Z,87.39
2023-04-09T22:10:45.651Z,86.85
2023-04-09T22:13:14.964Z,86.47
2023-04-09T22:15:41.860Z,85.68
2023-04-09T22:18:08.988Z,84.81
2023-04-09T22:20:36.152Z,84.39
2023-04-09T22:23:02.741Z,83.83
2023-04-09T22:25:34.801Z,83.37
2023-04-09T22:28:01.356Z,82.70
2023-04-09T22:30:27.982Z,82.01
2023-04-09T22:32:54.565Z,81.41
2023-04-09T22:35:21.189Z,81.31
2023-04-09T22:37:47.790Z,80.72
2023-04-09T22:40:19.941Z,80.09
2023-04-09T22:42:47.079Z,79.57
2023-04-09T22:45:14.163Z,79.10
2023-04-09T22:47:40.868Z,79.37
2023-04-09T22:50:08.261Z,79.68
2023-04-09T22:52:34.746Z,79.43
2023-04-09T22:55:02.024Z,79.56
2023-04-09T22:57:30.249Z,79.32
2023-04-09T23:00:00.048Z,78.98
2023-04-09T23:02:27.256Z,79.30
2023-04-09T23:04:57.683Z,79.11
2023-04-09T23:07:34.510Z,79.01
2023-04-09T23:10:01.762Z,79.04
2023-04-09T23:12:28.230Z,78.50
2023-04-09T23:14:54.717Z,78.36
2023-04-09T23:17:22.634Z,78.12
2023-04-09T23:19:49.148Z,78.37
2023-04-09T23:22:15.854Z,78.51
2023-04-09T23:24:42.366Z,78.67
2023-04-09T23:27:08.829Z,78.65
2023-04-09T23:29:35.342Z,78.57
2023-04-09T23:32:06.313Z,78.84
2023-04-09T23:34:32.793Z,78.70
2023-04-09T23:36:59.684Z,78.88
2023-04-09T23:39:26.179Z,79.24
2023-04-09T23:41:52.871Z,79.54
2023-04-09T23:44:19.429Z,79.19
2023-04-09T23:46:46.660Z,78.76
2023-04-09T23:49:13.225Z,78.67
2023-04-09T23:51:39.686Z,78.95
2023-04-09T23:54:06.899Z,78.86
2023-04-09T23:56:42.360Z,78.92
2023-04-09T23:59:12.300Z,79.17
